Airfield :
LOGIN :

Register | Disclaimer

   EN    FR    IT 

 










Legend :    VFR   Marginal VFR   IFR   Intensive IFR   Very Intensive IFR
Visi :
Ceiling :
>= 8 km
>= 3000ft
5 to 8 km
1000 to 3000 ft
1500m to 5 km
500 to 1000 ft
800 to 1500m
200 to 500 ft
< 800m
< 200 ft
Symbols :   Thunderstorms  Fog  Heavy snow  Heavy precipitations  Wind > 20 kt
SIGMETs :     Misc.  Thunderstorms  Icing  Turbulence  Mountain Waves  Volcanic Ashes






- Airport Elevation : 348 ft
- IATA code : LDV


LFRJ - Landivisiau

CURRENT METAR :
  • 200600Z AUTO 16017KT CAVOK 07/05 Q1006 TEMPO 15015G25KT BECMG BKN010 BKN090

EXPIRED METARs :
  • 200530Z AUTO 16016KT 9999 FEW014 BKN092 OVC110 07/05 Q1007 TEMPO 15015G25KT BECMG BKN010 BKN090
  • 200500Z AUTO 16016KT 9999 SCT013 SCT047 OVC094 07/05 Q1007
  • 200430Z AUTO 16014KT 9999 FEW013 SCT092 BKN110 07/05 Q1007
  • 200400Z AUTO 15016KT 9999 SCT012 BKN072 OVC100 08/06 Q1007
  • 200330Z AUTO 16017KT 9999 BKN013 OVC090 08/06 Q1008

TAF TAF LFRJ
Valid from the 20 at 06:00 until the 20 at 15:00 UTC


200500Z 2006/2015 15012KT 9999 BKN010 BKN090
TEMPO 2006/2015 15015G25KT
BECMG 2009/2011 SCT012 SCT080



MET'MAP, your aeronautical weather chart ! - Copyright ORBIFLY December 2007 - Disclaimer

ORBIFLY MET'MAP TEAM :

Programming & Development : Alexandra Zaïnal
Concept & Development : Baudouin d'Aumeries
Co-Development & Prog : Marc-Olivier Méhu
Technical & hardware support : Manuel Goepfert

Contact : metmap@orbifly.com




SOURCES & CREDITS :

   NOAA